Time;durP1;ratioP1;P1;durP2;ratioP2;P2;SDS_P1;SDS_P2;PMS_P1;PMS_P2;Temp;Humidity;BMP_temperature;BMP_pressure;BME280_temperature;BME280_humidity;BME280_pressure;Samples;Min_cycle;Max_cycle;Signal;HPM_P1;HPM_P2
2022/12/31 00:00:40;;;;;;;83.55;45.15;;;;;;;;;;10101166;28;20057;-65
2022/12/31 00:05:35;;;;;;;85.95;48.10;;;;;;;;;;10099495;28;20049;-65
2022/12/31 00:10:29;;;;;;;88.20;43.72;;;;;;;;;;10106010;28;20133;-66
2022/12/31 00:15:22;;;;;;;91.55;43.63;;;;;;;;;;10110342;28;20455;-65
2022/12/31 00:20:16;;;;;;;78.95;43.95;;;;;;;;;;10118003;28;20075;-65
2022/12/31 00:25:11;;;;;;;80.40;47.33;;;;;;;;;;10128516;28;20131;-65
2022/12/31 00:30:07;;;;;;;75.38;41.25;;;;;;;;;;10118423;28;20102;-65
2022/12/31 00:35:01;;;;;;;83.88;45.53;;;;;;;;;;10117946;28;20128;-64
2022/12/31 00:39:55;;;;;;;95.10;53.20;;;;;;;;;;10110511;28;20115;-64
2022/12/31 00:44:49;;;;;;;87.40;51.30;;;;;;;;;;10110492;28;20045;-65
2022/12/31 00:49:43;;;;;;;82.18;45.33;;;;;;;;;;10113487;28;20523;-65
2022/12/31 00:54:37;;;;;;;81.85;47.20;;;;;;;;;;10123225;28;20053;-65
2022/12/31 00:59:31;;;;;;;81.85;44.28;;;;;;;;;;10110903;28;20084;-65
2022/12/31 01:04:24;;;;;;;80.75;42.97;;;;;;;;;;10111965;28;20049;-65
2022/12/31 01:09:17;;;;;;;77.88;40.83;;;;;;;;;;10117167;28;20436;-65
2022/12/31 01:14:14;;;;;;;77.45;39.17;;;;;;;;;;10116867;28;20056;-65
2022/12/31 01:19:11;;;;;;;73.43;39.58;;;;;;;;;;10112332;28;20051;-65
2022/12/31 01:24:05;;;;;;;72.97;38.97;;;;;;;;;;10109694;28;20474;-65
2022/12/31 01:28:59;;;;;;;69.45;38.03;;;;;;;;;;10129044;28;20144;-65
2022/12/31 01:33:54;;;;;;;77.00;39.30;;;;;;;;;;10110737;28;20053;-65
2022/12/31 01:38:48;;;;;;;77.53;39.35;;;;;;;;;;10108828;28;21334;-65
2022/12/31 01:43:43;;;;;;;59.63;35.40;;;;;;;;;;10126622;28;20099;-65
2022/12/31 01:48:36;;;;;;;52.65;31.70;;;;;;;;;;10114963;28;20049;-65
2022/12/31 01:53:30;;;;;;;58.58;30.10;;;;;;;;;;10108293;28;20538;-65
2022/12/31 01:58:27;;;;;;;57.20;30.90;;;;;;;;;;10114527;28;20409;-65
2022/12/31 02:03:20;;;;;;;44.60;27.85;;;;;;;;;;10094187;28;20049;-65
2022/12/31 02:08:14;;;;;;;47.38;27.92;;;;;;;;;;10106719;28;20045;-65
2022/12/31 02:13:08;;;;;;;34.90;22.75;;;;;;;;;;10107496;28;20438;-65
2022/12/31 02:18:21;;;;;;;46.92;26.58;;;;;;;;;;10116652;28;20478;-66
2022/12/31 02:23:35;;;;;;;41.00;25.58;;;;;;;;;;10111895;28;20140;-65
2022/12/31 02:28:49;;;;;;;37.58;23.65;;;;;;;;;;10106445;28;20049;-65
2022/12/31 02:33:53;;;;;;;32.67;20.92;;;;;;;;;;10128736;28;20044;-65
2022/12/31 02:38:48;;;;;;;31.75;19.98;;;;;;;;;;10107343;28;20413;-65
2022/12/31 02:43:46;;;;;;;30.05;19.70;;;;;;;;;;10114091;28;20057;-66
2022/12/31 02:49:08;;;;;;;31.48;21.75;;;;;;;;;;10112432;28;20124;-66
2022/12/31 02:54:10;;;;;;;32.40;20.20;;;;;;;;;;10125943;28;20060;-65
2022/12/31 03:04:34;;;;;;;27.58;19.85;;;;;;;;;;10108372;28;20056;-65
2022/12/31 03:09:29;;;;;;;27.85;18.77;;;;;;;;;;10105360;28;20079;-66
2022/12/31 03:14:23;;;;;;;30.05;20.08;;;;;;;;;;10110779;28;20472;-65
2022/12/31 03:29:41;;;;;;;27.52;18.83;;;;;;;;;;10111990;28;20053;-65
2022/12/31 03:34:35;;;;;;;26.45;19.15;;;;;;;;;;10111916;28;20549;-65
2022/12/31 03:39:30;;;;;;;27.00;19.67;;;;;;;;;;10105516;28;20063;-65
2022/12/31 03:44:23;;;;;;;22.98;18.42;;;;;;;;;;10103901;28;20501;-65
2022/12/31 03:49:17;;;;;;;26.58;18.52;;;;;;;;;;10107511;28;20079;-65
2022/12/31 03:54:11;;;;;;;23.70;17.88;;;;;;;;;;10112867;28;20127;-65
2022/12/31 03:59:05;;;;;;;21.05;18.10;;;;;;;;;;10123819;28;20060;-65
2022/12/31 04:03:58;;;;;;;22.77;16.48;;;;;;;;;;10114079;28;20052;-65
2022/12/31 04:08:52;;;;;;;25.30;16.40;;;;;;;;;;10112192;28;20103;-66
2022/12/31 04:13:46;;;;;;;20.17;16.95;;;;;;;;;;10113599;28;20080;-66
2022/12/31 04:18:40;;;;;;;22.10;15.38;;;;;;;;;;10120659;28;20106;-66
2022/12/31 04:23:34;;;;;;;22.95;14.90;;;;;;;;;;10123125;28;20049;-65
2022/12/31 04:28:27;;;;;;;22.05;17.08;;;;;;;;;;10116939;28;20071;-66
2022/12/31 04:33:21;;;;;;;17.75;14.57;;;;;;;;;;10112519;28;20064;-65
2022/12/31 04:38:14;;;;;;;18.73;16.25;;;;;;;;;;10110742;28;20532;-65
2022/12/31 04:43:09;;;;;;;24.63;18.17;;;;;;;;;;10115644;28;20056;-65
2022/12/31 04:48:04;;;;;;;27.27;19.90;;;;;;;;;;10115747;28;20068;-66
2022/12/31 04:52:58;;;;;;;19.52;15.23;;;;;;;;;;10113610;28;20057;-66
2022/12/31 04:57:51;;;;;;;17.02;14.32;;;;;;;;;;10119684;28;20035;-66
2022/12/31 05:02:45;;;;;;;18.95;14.50;;;;;;;;;;10115701;28;20523;-65
2022/12/31 05:07:40;;;;;;;19.52;16.27;;;;;;;;;;10113214;28;20048;-66
2022/12/31 05:12:33;;;;;;;21.35;15.95;;;;;;;;;;10104298;28;20099;-66
2022/12/31 05:17:27;;;;;;;19.40;14.98;;;;;;;;;;10101391;28;20049;-65
2022/12/31 05:22:30;;;;;;;34.30;15.85;;;;;;;;;;10103698;28;20060;-65
2022/12/31 05:27:23;;;;;;;22.33;18.73;;;;;;;;;;10108495;28;20049;-65
2022/12/31 05:32:17;;;;;;;18.67;15.63;;;;;;;;;;10120498;28;20532;-66
2022/12/31 05:37:12;;;;;;;17.42;14.93;;;;;;;;;;10106131;28;20073;-66
2022/12/31 05:42:09;;;;;;;20.45;14.82;;;;;;;;;;10115688;28;20068;-66
2022/12/31 05:47:02;;;;;;;18.08;13.63;;;;;;;;;;10102959;28;20074;-65
2022/12/31 05:51:56;;;;;;;18.27;15.35;;;;;;;;;;10107936;28;20116;-66
2022/12/31 05:56:50;;;;;;;19.92;14.60;;;;;;;;;;10107276;28;20042;-65
2022/12/31 06:01:44;;;;;;;17.58;13.55;;;;;;;;;;10113675;28;20052;-66
2022/12/31 06:06:37;;;;;;;16.67;13.30;;;;;;;;;;10113348;28;20481;-65
2022/12/31 06:11:32;;;;;;;14.23;12.60;;;;;;;;;;10116517;28;20485;-65
2022/12/31 06:16:26;;;;;;;17.55;12.57;;;;;;;;;;10123903;28;20055;-66
2022/12/31 06:21:20;;;;;;;13.52;9.70;;;;;;;;;;10107300;28;20497;-65
2022/12/31 06:26:14;;;;;;;12.63;10.98;;;;;;;;;;10111596;28;20040;-64
2022/12/31 06:31:11;;;;;;;12.57;10.32;;;;;;;;;;10117943;28;20052;-65
2022/12/31 06:36:06;;;;;;;13.57;9.38;;;;;;;;;;10119189;28;20056;-65
2022/12/31 06:41:07;;;;;;;12.68;10.50;;;;;;;;;;10117009;28;20515;-65
2022/12/31 06:46:04;;;;;;;12.70;11.07;;;;;;;;;;10103595;28;20443;-65
2022/12/31 06:51:05;;;;;;;13.00;10.77;;;;;;;;;;10106047;28;20076;-65
2022/12/31 06:56:12;;;;;;;12.10;8.70;;;;;;;;;;10110776;28;20041;-66
2022/12/31 07:01:27;;;;;;;12.43;10.05;;;;;;;;;;10107565;28;20139;-69
2022/12/31 07:06:35;;;;;;;16.02;12.10;;;;;;;;;;10110835;28;20048;-65
2022/12/31 07:12:18;;;;;;;14.43;12.15;;;;;;;;;;10122913;28;20412;-65
2022/12/31 07:17:40;;;;;;;12.88;11.45;;;;;;;;;;10030388;28;20057;-66
2022/12/31 07:22:35;;;;;;;13.73;10.88;;;;;;;;;;10096508;28;20073;-65
2022/12/31 07:28:02;;;;;;;14.77;11.45;;;;;;;;;;10111120;28;20041;-65
2022/12/31 07:33:06;;;;;;;15.25;10.57;;;;;;;;;;10109366;28;20114;-65
2022/12/31 07:38:27;;;;;;;12.90;10.57;;;;;;;;;;10119229;28;20048;-65
2022/12/31 07:43:26;;;;;;;15.43;11.20;;;;;;;;;;10118848;28;20701;-65
2022/12/31 07:48:25;;;;;;;13.63;9.45;;;;;;;;;;10114437;28;21205;-65
2022/12/31 07:53:20;;;;;;;17.97;12.10;;;;;;;;;;10112929;28;20059;-65
2022/12/31 07:58:22;;;;;;;11.73;10.02;;;;;;;;;;10119672;28;20049;-65
2022/12/31 08:03:59;;;;;;;12.27;10.98;;;;;;;;;;10118116;28;20051;-65
2022/12/31 08:09:01;;;;;;;13.05;9.93;;;;;;;;;;10046819;28;20055;-65
2022/12/31 08:13:56;;;;;;;27.67;20.92;;;;;;;;;;10107913;28;20509;-65
2022/12/31 08:18:50;;;;;;;16.63;13.55;;;;;;;;;;10097920;28;20048;-64
2022/12/31 08:24:05;;;;;;;17.42;11.80;;;;;;;;;;10111884;28;20060;-64
2022/12/31 08:29:07;;;;;;;17.63;13.65;;;;;;;;;;10122854;28;20037;-64
2022/12/31 08:34:41;;;;;;;17.20;11.57;;;;;;;;;;10123809;28;20409;-64
2022/12/31 08:39:37;;;;;;;13.38;11.98;;;;;;;;;;10113251;28;20425;-64
2022/12/31 08:44:59;;;;;;;14.00;12.30;;;;;;;;;;10110163;28;20509;-64
2022/12/31 08:49:54;;;;;;;16.38;12.73;;;;;;;;;;10120922;28;20382;-64
2022/12/31 08:54:48;;;;;;;14.07;12.38;;;;;;;;;;10113263;28;20052;-66
2022/12/31 09:00:23;;;;;;;15.20;13.07;;;;;;;;;;10107455;28;20040;-65
2022/12/31 09:05:35;;;;;;;14.20;12.32;;;;;;;;;;10106580;28;20059;-64
2022/12/31 09:10:31;;;;;;;14.00;12.60;;;;;;;;;;10112769;28;20459;-65
2022/12/31 09:15:55;;;;;;;14.05;12.10;;;;;;;;;;10115796;28;20044;-66
2022/12/31 09:20:50;;;;;;;21.23;13.00;;;;;;;;;;10101132;28;20049;-71
2022/12/31 09:26:09;;;;;;;13.48;11.88;;;;;;;;;;10115273;28;20123;-78
2022/12/31 09:31:05;;;;;;;;;;;;;;;;;;10134946;28;20049;-61
2022/12/31 09:36:08;;;;;;;16.42;13.13;;;;;;;;;;10136603;28;19927;-63
2022/12/31 09:41:04;;;;;;;18.83;14.77;;;;;;;;;;10122357;28;20052;-71
2022/12/31 09:46:28;;;;;;;28.65;18.88;;;;;;;;;;10136426;28;20402;-64
2022/12/31 09:51:29;;;;;;;22.27;14.90;;;;;;;;;;10106311;28;20057;-62
2022/12/31 09:56:28;;;;;;;17.98;15.82;;;;;;;;;;10108598;28;20063;-62
2022/12/31 10:01:44;;;;;;;;;;;;;;;;;;10117512;28;20402;-60
2022/12/31 10:07:03;;;;;;;23.30;17.10;;;;;;;;;;10099571;28;19986;-62
2022/12/31 10:12:04;;;;;;;20.30;17.02;;;;;;;;;;10109310;28;20059;-62
2022/12/31 10:17:03;;;;;;;22.92;16.67;;;;;;;;;;10110068;28;20052;-63
2022/12/31 10:22:20;;;;;;;22.98;18.90;;;;;;;;;;10118806;28;20053;-63
2022/12/31 10:27:46;;;;;;;25.13;17.75;;;;;;;;;;10110739;28;20127;-63
2022/12/31 10:33:05;;;;;;;20.95;16.58;;;;;;;;;;10109153;28;20120;-61
2022/12/31 10:38:25;;;;;;;21.25;16.95;;;;;;;;;;10113840;28;20132;-61
2022/12/31 10:44:11;;;;;;;21.48;17.52;;;;;;;;;;10118252;28;20086;-62
2022/12/31 10:49:07;;;;;;;21.77;16.20;;;;;;;;;;10083270;28;20052;-62
2022/12/31 10:54:19;;;;;;;23.85;18.33;;;;;;;;;;10119783;28;20417;-61
2022/12/31 10:59:26;;;;;;;21.88;18.38;;;;;;;;;;10122652;28;20153;-62
2022/12/31 11:04:48;;;;;;;28.73;18.30;;;;;;;;;;10126663;28;20119;-63
2022/12/31 11:10:10;;;;;;;25.38;18.33;;;;;;;;;;10125688;28;20044;-64
2022/12/31 11:15:11;;;;;;;22.33;17.85;;;;;;;;;;10111075;28;20390;-62
2022/12/31 11:20:43;;;;;;;22.58;18.83;;;;;;;;;;10128887;28;20405;-62
2022/12/31 11:25:55;;;;;;;24.83;22.20;;;;;;;;;;10124585;28;20092;-64
2022/12/31 11:31:23;;;;;;;24.92;21.63;;;;;;;;;;10132428;28;20083;-63
2022/12/31 11:36:38;;;;;;;24.48;20.35;;;;;;;;;;10039782;28;20409;-63
2022/12/31 11:41:40;;;;;;;26.48;23.48;;;;;;;;;;10132891;28;20057;-63
2022/12/31 11:46:41;;;;;;;22.05;19.50;;;;;;;;;;10123486;28;20060;-64
2022/12/31 11:51:35;;;;;;;25.55;21.55;;;;;;;;;;10127917;28;20498;-65
2022/12/31 11:56:34;;;;;;;29.35;22.60;;;;;;;;;;10129631;28;20060;-63
2022/12/31 12:01:50;;;;;;;29.53;23.13;;;;;;;;;;10127511;28;20089;-66
2022/12/31 12:07:07;;;;;;;35.50;23.23;;;;;;;;;;10123038;28;20071;-66
2022/12/31 12:12:40;;;;;;;29.42;21.92;;;;;;;;;;10108321;28;20074;-64
2022/12/31 12:17:54;;;;;;;28.70;24.00;;;;;;;;;;10129564;28;20060;-65
2022/12/31 12:23:33;;;;;;;28.73;24.63;;;;;;;;;;10137237;28;20051;-63
2022/12/31 12:28:39;;;;;;;28.08;21.35;;;;;;;;;;10130142;28;20057;-65
2022/12/31 12:33:45;;;;;;;28.30;22.77;;;;;;;;;;10112510;28;20056;-64
2022/12/31 12:38:39;;;;;;;25.95;21.45;;;;;;;;;;10124669;28;20470;-62
2022/12/31 12:43:35;;;;;;;32.10;26.63;;;;;;;;;;10120675;28;20136;-63
2022/12/31 12:48:42;;;;;;;31.52;25.55;;;;;;;;;;10134864;28;20477;-63
2022/12/31 12:53:36;;;;;;;33.85;25.60;;;;;;;;;;10124322;28;20091;-65
2022/12/31 12:58:33;;;;;;;31.92;24.85;;;;;;;;;;10126602;28;20083;-67
2022/12/31 13:03:43;;;;;;;30.52;24.88;;;;;;;;;;10116736;28;20464;-67
2022/12/31 13:09:17;;;;;;;31.33;25.55;;;;;;;;;;10120014;28;20073;-67
2022/12/31 13:14:30;;;;;;;32.28;25.00;;;;;;;;;;10127613;28;20049;-67
2022/12/31 13:19:35;;;;;;;33.08;27.15;;;;;;;;;;10131031;28;20077;-67
2022/12/31 13:24:46;;;;;;;33.25;27.98;;;;;;;;;;10121500;28;20056;-65
2022/12/31 13:29:41;;;;;;;35.22;28.33;;;;;;;;;;10121515;28;20087;-64
2022/12/31 13:34:38;;;;;;;42.60;32.30;;;;;;;;;;10120797;28;20048;-66
2022/12/31 13:39:37;;;;;;;48.85;32.60;;;;;;;;;;10099945;28;20057;-65
2022/12/31 13:44:42;;;;;;;36.13;31.35;;;;;;;;;;10111413;28;20055;-64
2022/12/31 13:49:42;;;;;;;41.50;32.10;;;;;;;;;;10130042;28;20126;-65
2022/12/31 13:54:51;;;;;;;40.88;31.00;;;;;;;;;;10130310;28;20056;-64
2022/12/31 13:59:49;;;;;;;43.40;32.30;;;;;;;;;;10114937;28;20040;-64
2022/12/31 14:04:48;;;;;;;36.33;30.15;;;;;;;;;;10128300;28;20033;-64
2022/12/31 14:09:42;;;;;;;;;;;;;;;;;;10135254;28;20052;-63
2022/12/31 14:14:36;;;;;;;50.60;37.65;;;;;;;;;;10135046;28;19920;-64
2022/12/31 14:19:57;;;;;;;43.63;33.40;;;;;;;;;;10132450;28;20049;-65
2022/12/31 14:24:51;;;;;;;40.03;31.95;;;;;;;;;;10134499;28;20055;-63
2022/12/31 14:29:57;;;;;;;42.67;31.80;;;;;;;;;;10123672;28;20428;-64
2022/12/31 14:35:12;;;;;;;43.25;35.63;;;;;;;;;;10121678;28;20041;-63
2022/12/31 14:40:36;;;;;;;46.92;34.05;;;;;;;;;;10126829;28;20396;-65
2022/12/31 14:45:45;;;;;;;45.78;34.67;;;;;;;;;;10132036;28;20497;-64
2022/12/31 14:50:40;;;;;;;57.05;41.53;;;;;;;;;;10133338;28;20065;-64
2022/12/31 14:55:42;;;;;;;47.00;36.50;;;;;;;;;;10136857;28;20036;-64
2022/12/31 15:01:08;;;;;;;56.90;42.47;;;;;;;;;;10131628;28;20046;-64
2022/12/31 15:06:42;;;;;;;47.72;35.72;;;;;;;;;;10130461;28;20504;-65
2022/12/31 15:11:41;;;;;;;59.20;44.22;;;;;;;;;;10091649;28;20573;-65
2022/12/31 15:17:02;;;;;;;116.23;74.73;;;;;;;;;;10093982;28;20131;-65
2022/12/31 15:22:28;;;;;;;51.35;38.90;;;;;;;;;;10117913;28;20143;-65
2022/12/31 15:27:41;;;;;;;50.83;37.17;;;;;;;;;;10113399;28;20063;-66
2022/12/31 15:32:41;;;;;;;42.30;34.90;;;;;;;;;;10110886;28;20049;-66
2022/12/31 15:37:35;;;;;;;49.22;37.10;;;;;;;;;;10103216;28;20140;-65
2022/12/31 15:42:45;;;;;;;46.30;36.45;;;;;;;;;;10113850;28;20135;-65
2022/12/31 15:47:45;;;;;;;50.38;40.88;;;;;;;;;;10101789;28;20076;-65
2022/12/31 15:52:42;;;;;;;45.17;35.88;;;;;;;;;;10080631;28;20100;-65
2022/12/31 15:57:40;;;;;;;49.47;40.13;;;;;;;;;;10071938;28;20052;-65
2022/12/31 16:02:34;;;;;;;48.88;35.58;;;;;;;;;;10065386;28;20045;-65
2022/12/31 16:07:28;;;;;;;49.13;41.28;;;;;;;;;;10056663;28;20057;-66
2022/12/31 16:12:24;;;;;;;46.67;36.55;;;;;;;;;;10065397;28;20060;-66
2022/12/31 16:17:32;;;;;;;45.53;36.25;;;;;;;;;;10071083;28;20049;-66
2022/12/31 16:22:28;;;;;;;43.38;35.83;;;;;;;;;;10099459;28;20049;-70
2022/12/31 16:27:22;;;;;;;58.08;39.63;;;;;;;;;;10080173;28;20053;-70
2022/12/31 16:32:18;;;;;;;47.88;37.38;;;;;;;;;;10075362;28;20049;-71
2022/12/31 16:37:19;;;;;;;51.63;39.28;;;;;;;;;;10078777;28;20045;-71
2022/12/31 16:42:12;;;;;;;46.55;35.67;;;;;;;;;;10070382;28;20049;-71
2022/12/31 16:47:07;;;;;;;42.08;34.63;;;;;;;;;;10062023;28;20049;-71
2022/12/31 16:52:23;;;;;;;49.03;36.13;;;;;;;;;;10088322;28;20061;-71
2022/12/31 16:57:20;;;;;;;52.63;39.63;;;;;;;;;;10110622;28;20051;-71
2022/12/31 17:02:19;;;;;;;77.00;59.03;;;;;;;;;;10105549;28;20052;-72
2022/12/31 17:07:30;;;;;;;82.68;61.70;;;;;;;;;;10098794;28;20079;-72
2022/12/31 17:12:26;;;;;;;51.75;40.35;;;;;;;;;;10131120;28;20068;-72
2022/12/31 17:17:25;;;;;;;57.40;42.72;;;;;;;;;;10114840;28;20095;-71
2022/12/31 17:22:36;;;;;;;53.38;42.28;;;;;;;;;;10119652;28;20513;-71
2022/12/31 17:27:29;;;;;;;58.03;44.30;;;;;;;;;;10092327;28;20057;-71
2022/12/31 17:32:38;;;;;;;56.10;44.78;;;;;;;;;;10115901;28;20140;-71
2022/12/31 17:37:32;;;;;;;61.70;49.40;;;;;;;;;;10103556;28;20056;-71
2022/12/31 17:42:36;;;;;;;57.78;46.10;;;;;;;;;;10103321;28;20068;-71
2022/12/31 17:47:35;;;;;;;56.17;44.67;;;;;;;;;;10105612;28;20509;-70
2022/12/31 17:52:29;;;;;;;57.40;45.95;;;;;;;;;;10106260;28;20099;-72
2022/12/31 17:57:25;;;;;;;60.38;48.65;;;;;;;;;;10110307;28;20878;-72
2022/12/31 18:02:19;;;;;;;61.90;49.53;;;;;;;;;;10104041;28;20699;-71
2022/12/31 18:07:13;;;;;;;67.38;48.47;;;;;;;;;;10102663;28;20405;-72
2022/12/31 18:12:10;;;;;;;59.45;47.72;;;;;;;;;;10115522;28;20409;-67
2022/12/31 18:17:08;;;;;;;65.50;48.25;;;;;;;;;;10104984;28;20045;-70
2022/12/31 18:22:02;;;;;;;57.83;46.30;;;;;;;;;;10107079;28;20124;-70
2022/12/31 18:26:55;;;;;;;59.63;45.22;;;;;;;;;;10093839;28;20037;-69
2022/12/31 18:31:49;;;;;;;59.22;45.15;;;;;;;;;;10112027;28;20779;-66
2022/12/31 18:36:43;;;;;;;66.72;48.65;;;;;;;;;;10113921;28;20053;-69
2022/12/31 18:41:44;;;;;;;60.83;48.63;;;;;;;;;;10107752;28;20102;-68
2022/12/31 18:46:38;;;;;;;87.45;65.97;;;;;;;;;;10105203;28;20056;-68
2022/12/31 18:51:32;;;;;;;76.25;55.70;;;;;;;;;;10106894;28;20165;-68
2022/12/31 18:56:24;;;;;;;65.90;52.30;;;;;;;;;;10106805;28;20063;-68
2022/12/31 19:01:29;;;;;;;66.68;48.00;;;;;;;;;;10108733;28;20052;-68
2022/12/31 19:06:24;;;;;;;71.80;50.08;;;;;;;;;;10103850;28;20049;-68
2022/12/31 19:11:18;;;;;;;52.88;39.42;;;;;;;;;;10117934;28;20065;-68
2022/12/31 19:16:12;;;;;;;44.60;36.85;;;;;;;;;;10113608;28;20137;-68
2022/12/31 19:21:16;;;;;;;64.55;37.88;;;;;;;;;;10104659;28;20044;-68
2022/12/31 19:26:15;;;;;;;64.07;48.92;;;;;;;;;;10108381;28;20052;-68
2022/12/31 19:31:08;;;;;;;87.20;59.95;;;;;;;;;;10107632;28;20055;-68
2022/12/31 19:36:06;;;;;;;90.50;68.15;;;;;;;;;;10114734;28;20056;-68
2022/12/31 19:40:59;;;;;;;82.72;61.15;;;;;;;;;;10094858;28;20132;-68
2022/12/31 19:45:54;;;;;;;85.18;62.85;;;;;;;;;;10119155;28;20494;-68
2022/12/31 19:50:52;;;;;;;94.55;68.53;;;;;;;;;;10104789;28;20057;-68
2022/12/31 19:56:04;;;;;;;109.75;84.03;;;;;;;;;;10105764;28;20072;-68
2022/12/31 20:00:58;;;;;;;97.50;72.70;;;;;;;;;;10103838;28;20053;-68
2022/12/31 20:06:21;;;;;;;100.20;74.10;;;;;;;;;;10104334;28;20045;-68
2022/12/31 20:11:20;;;;;;;88.40;65.43;;;;;;;;;;10084204;28;20053;-68
2022/12/31 20:16:15;;;;;;;86.22;65.15;;;;;;;;;;10116968;28;20632;-69
2022/12/31 20:21:21;;;;;;;76.93;57.50;;;;;;;;;;10115063;28;20053;-69
2022/12/31 20:26:15;;;;;;;74.00;51.15;;;;;;;;;;10103521;28;20073;-69
2022/12/31 20:31:31;;;;;;;74.57;50.25;;;;;;;;;;10121238;28;20081;-68
2022/12/31 20:36:26;;;;;;;70.18;51.83;;;;;;;;;;10111661;28;20053;-68
2022/12/31 20:41:21;;;;;;;75.00;56.65;;;;;;;;;;10111139;28;20080;-68
2022/12/31 20:46:21;;;;;;;96.97;73.45;;;;;;;;;;10119606;28;20044;-68
2022/12/31 20:51:15;;;;;;;72.88;55.92;;;;;;;;;;10109653;28;20212;-68
2022/12/31 20:56:09;;;;;;;71.32;55.10;;;;;;;;;;10128080;28;20180;-67
2022/12/31 21:01:06;;;;;;;65.95;50.67;;;;;;;;;;10118424;28;20056;-68
2022/12/31 21:06:01;;;;;;;68.82;52.22;;;;;;;;;;10122432;28;20048;-68
2022/12/31 21:10:55;;;;;;;78.32;59.72;;;;;;;;;;10126037;28;20076;-68
2022/12/31 21:15:50;;;;;;;78.03;56.22;;;;;;;;;;10110246;28;20044;-67
2022/12/31 21:20:50;;;;;;;83.68;58.47;;;;;;;;;;10133032;28;20128;-68
2022/12/31 21:25:45;;;;;;;76.28;52.92;;;;;;;;;;10112199;28;20045;-71
2022/12/31 21:30:39;;;;;;;78.00;54.65;;;;;;;;;;10112110;28;20486;-68
2022/12/31 21:35:33;;;;;;;75.70;56.65;;;;;;;;;;10111606;28;20405;-70
2022/12/31 21:40:45;;;;;;;75.70;56.90;;;;;;;;;;10111286;28;20386;-70
2022/12/31 21:45:39;;;;;;;76.88;55.75;;;;;;;;;;10116452;28;20487;-70
2022/12/31 21:50:33;;;;;;;72.07;52.97;;;;;;;;;;10125828;28;20106;-69
2022/12/31 22:05:55;;;;;;;78.32;55.40;;;;;;;;;;10125049;28;20471;-69
2022/12/31 22:10:49;;;;;;;80.60;59.10;;;;;;;;;;10110555;28;20057;-69
2022/12/31 22:15:45;;;;;;;76.13;57.55;;;;;;;;;;10112186;28;20044;-69
2022/12/31 22:20:38;;;;;;;69.55;53.47;;;;;;;;;;10111482;28;20053;-70
2022/12/31 22:25:34;;;;;;;59.33;46.70;;;;;;;;;;10106740;28;20060;-69
2022/12/31 22:30:27;;;;;;;65.50;46.80;;;;;;;;;;10106757;28;20060;-70
2022/12/31 22:35:21;;;;;;;65.15;49.35;;;;;;;;;;10117541;28;20059;-69
2022/12/31 22:40:14;;;;;;;62.47;50.80;;;;;;;;;;10120214;28;20106;-69
2022/12/31 22:45:08;;;;;;;66.10;49.60;;;;;;;;;;10106486;28;20128;-69
2022/12/31 22:50:02;;;;;;;72.40;51.00;;;;;;;;;;10115643;28;20469;-69
2022/12/31 22:54:56;;;;;;;67.65;46.38;;;;;;;;;;10105991;28;20045;-69
2022/12/31 22:59:50;;;;;;;60.35;49.22;;;;;;;;;;10104868;28;20056;-69
2022/12/31 23:04:45;;;;;;;60.97;51.70;;;;;;;;;;10108660;28;20110;-69
2022/12/31 23:25:18;;;;;;;53.58;43.53;;;;;;;;;;10126892;28;20041;-68
2022/12/31 23:30:13;;;;;;;60.83;47.95;;;;;;;;;;10119335;28;20132;-69
2022/12/31 23:35:08;;;;;;;101.93;76.93;;;;;;;;;;10114981;28;20053;-69
2022/12/31 23:40:03;;;;;;;107.85;72.80;;;;;;;;;;10117167;28;20095;-69
2022/12/31 23:44:57;;;;;;;110.63;82.38;;;;;;;;;;10119937;28;20428;-69
2022/12/31 23:49:51;;;;;;;157.98;108.25;;;;;;;;;;10109443;28;20057;-69
2022/12/31 23:54:44;;;;;;;178.02;137.10;;;;;;;;;;10096615;28;20084;-69
2022/12/31 23:59:38;;;;;;;159.93;127.07;;;;;;;;;;10095190;28;20486;-69
